Time,TemperatureF,DewpointF,PressureIn,WindDirection,WindDirectionDegrees,WindSpeedMPH,WindSpeedGustMPH,Humidity,HourlyPrecipIn,Conditions,Clouds,dailyrainin,SoftwareType,DateUTC
2013-01-26 00:01:00,16.9,-4.0,30.06,WNW,293,3.4,8.9,39,0.00,,,0.00,WUHU216HW,2013-01-26 05:01:00,
2013-01-26 00:02:00,16.9,-3.5,30.06,NW,315,3.4,8.9,40,0.00,,,0.00,WUHU216HW,2013-01-26 05:02:00,
2013-01-26 00:07:00,16.9,-4.0,30.06,West,270,3.6,6.9,39,0.00,,,0.00,WUHU216HW,2013-01-26 05:07:00,
2013-01-26 00:12:00,16.9,-3.5,30.06,WNW,293,2.9,6.9,40,0.00,,,0.00,WUHU216HW,2013-01-26 05:12:00,
2013-01-26 00:18:00,16.7,-2.1,30.06,WNW,293,1.8,8.3,43,0.00,,,0.00,WUHU216HW,2013-01-26 05:18:00,
2013-01-26 00:23:00,16.7,-1.1,30.06,West,270,5.4,9.2,45,0.00,,,0.00,WUHU216HW,2013-01-26 05:23:00,
2013-01-26 00:28:00,16.5,0.1,30.05,West,270,8.1,9.2,48,0.00,,,0.00,WUHU216HW,2013-01-26 05:28:00,
2013-01-26 00:33:00,16.3,-1.0,30.05,SE,135,2.9,8.9,46,0.00,,,0.00,WUHU216HW,2013-01-26 05:33:00,
2013-01-26 00:37:00,16.5,0.6,30.05,WNW,293,6.3,8.9,49,0.00,,,0.00,WUHU216HW,2013-01-26 05:37:00,
2013-01-26 00:42:00,16.3,1.3,30.05,WNW,293,4.7,7.6,51,0.00,,,0.00,WUHU216HW,2013-01-26 05:42:00,
2013-01-26 00:48:00,16.3,1.7,30.05,West,270,2.5,7.6,52,0.00,,,0.00,WUHU216HW,2013-01-26 05:48:00,
2013-01-26 00:53:00,16.3,1.7,30.05,WNW,293,4.5,6.9,52,0.00,,,0.00,WUHU216HW,2013-01-26 05:53:00,
2013-01-26 00:58:00,16.1,3.5,30.05,WNW,293,1.3,5.8,57,0.00,,,0.00,WUHU216HW,2013-01-26 05:58:00,
2013-01-26 01:03:00,16.0,2.7,30.05,WNW,293,5.4,5.4,55,0.00,,,0.00,WUHU216HW,2013-01-26 06:03:00,
2013-01-26 01:08:00,16.0,2.7,30.05,NW,315,3.8,6.3,55,0.00,,,0.00,WUHU216HW,2013-01-26 06:08:00,
2013-01-26 01:13:00,15.8,4.0,30.04,NW,315,2.7,6.3,59,0.00,,,0.00,WUHU216HW,2013-01-26 06:13:00,
2013-01-26 01:18:00,15.6,4.9,30.04,WNW,293,2.5,4.9,62,0.00,,,0.00,WUHU216HW,2013-01-26 06:18:00,
2013-01-26 01:23:00,15.4,5.4,30.04,NW,315,3.4,5.8,64,0.00,,,0.00,WUHU216HW,2013-01-26 06:23:00,
2013-01-26 01:28:00,15.2,5.2,30.04,WNW,293,4.3,5.8,64,0.00,,,0.00,WUHU216HW,2013-01-26 06:28:00,
2013-01-26 01:33:00,15.2,4.9,30.04,WNW,293,3.1,4.3,63,0.00,,,0.00,WUHU216HW,2013-01-26 06:33:00,
2013-01-26 01:38:00,15.2,5.2,30.04,WNW,293,2.5,5.8,64,0.00,,,0.00,WUHU216HW,2013-01-26 06:38:00,
2013-01-26 01:43:00,15.2,5.6,30.04,NNW,338,3.1,5.8,65,0.00,,,0.00,WUHU216HW,2013-01-26 06:43:00,
2013-01-26 01:48:00,15.1,6.8,30.04,NW,315,1.1,3.6,69,0.00,,,0.00,WUHU216HW,2013-01-26 06:48:00,
2013-01-26 01:53:00,14.9,6.6,30.04,NW,315,1.1,6.5,69,0.00,,,0.00,WUHU216HW,2013-01-26 06:53:00,
2013-01-26 01:58:00,14.9,6.6,30.03,North,0,3.6,6.5,69,0.00,,,0.00,WUHU216HW,2013-01-26 06:58:00,
2013-01-26 02:03:00,14.9,6.6,30.03,NW,315,6.9,6.9,69,0.00,,,0.00,WUHU216HW,2013-01-26 07:03:00,
2013-01-26 02:08:00,14.9,6.9,30.03,NW,315,4.0,6.9,70,0.00,,,0.00,WUHU216HW,2013-01-26 07:08:00,
2013-01-26 02:13:00,14.7,7.0,30.03,WNW,293,3.4,6.9,71,0.00,,,0.00,WUHU216HW,2013-01-26 07:13:00,
2013-01-26 02:18:00,14.7,7.0,30.03,West,270,4.0,4.9,71,0.00,,,0.00,WUHU216HW,2013-01-26 07:18:00,
2013-01-26 02:23:00,14.5,6.9,30.03,NW,315,1.8,4.7,71,0.00,,,0.00,WUHU216HW,2013-01-26 07:23:00,
2013-01-26 02:28:00,14.5,6.9,30.03,ENE,68,1.1,5.6,71,0.00,,,0.00,WUHU216HW,2013-01-26 07:28:00,
2013-01-26 02:33:00,14.5,6.9,30.03,WNW,293,2.5,5.6,71,0.00,,,0.00,WUHU216HW,2013-01-26 07:33:00,
2013-01-26 02:38:00,14.3,6.7,30.02,West,270,0.2,4.3,71,0.00,,,0.00,WUHU216HW,2013-01-26 07:38:00,
2013-01-26 02:43:00,14.2,6.9,30.02,NNW,338,1.1,3.6,72,0.00,,,0.00,WUHU216HW,2013-01-26 07:43:00,
2013-01-26 02:48:00,14.2,6.9,30.02,NW,315,2.7,6.3,72,0.00,,,0.00,WUHU216HW,2013-01-26 07:48:00,
2013-01-26 02:53:00,14.0,7.0,30.02,NNE,23,1.3,6.3,73,0.00,,,0.00,WUHU216HW,2013-01-26 07:53:00,
2013-01-26 02:58:00,14.0,7.0,30.02,WNW,293,2.5,5.6,73,0.00,,,0.00,WUHU216HW,2013-01-26 07:58:00,
2013-01-26 03:03:00,13.8,7.1,30.01,NNW,338,1.3,5.8,74,0.00,,,0.00,WUHU216HW,2013-01-26 08:03:00,
2013-01-26 03:08:00,13.8,6.8,30.01,NE,45,0.7,5.8,73,0.00,,,0.00,WUHU216HW,2013-01-26 08:08:00,
2013-01-26 03:13:00,13.8,7.1,30.01,NNW,338,1.3,4.5,74,0.00,,,0.00,WUHU216HW,2013-01-26 08:13:00,
2013-01-26 03:18:00,13.8,7.1,30.01,NW,315,1.8,4.9,74,0.00,,,0.00,WUHU216HW,2013-01-26 08:18:00,
2013-01-26 03:23:00,13.6,6.9,30.01,NNE,23,2.0,4.9,74,0.00,,,0.00,WUHU216HW,2013-01-26 08:23:00,
2013-01-26 03:28:00,13.6,6.9,30.01,WNW,293,1.8,5.1,74,0.00,,,0.00,WUHU216HW,2013-01-26 08:28:00,
2013-01-26 03:33:00,13.6,6.9,30.01,WNW,293,3.6,6.3,74,0.00,,,0.00,WUHU216HW,2013-01-26 08:33:00,
2013-01-26 03:38:00,13.4,6.7,30.01,WNW,293,2.5,6.3,74,0.00,,,0.00,WUHU216HW,2013-01-26 08:38:00,
2013-01-26 03:43:00,13.4,6.4,30.00,WNW,293,5.4,5.4,73,0.00,,,0.00,WUHU216HW,2013-01-26 08:43:00,
2013-01-26 03:48:00,13.4,6.4,30.00,NW,315,3.6,5.4,73,0.00,,,0.00,WUHU216HW,2013-01-26 08:48:00,
2013-01-26 03:53:00,13.4,6.4,30.00,NW,315,6.0,6.0,73,0.00,,,0.00,WUHU216HW,2013-01-26 08:53:00,
2013-01-26 03:58:00,13.3,6.3,30.00,WNW,293,3.1,6.0,73,0.00,,,0.00,WUHU216HW,2013-01-26 08:58:00,
2013-01-26 04:03:00,13.3,6.0,30.00,West,270,5.1,6.0,72,0.00,,,0.00,WUHU216HW,2013-01-26 09:03:00,
2013-01-26 04:08:00,13.1,5.8,30.00,WNW,293,5.4,6.9,72,0.00,,,0.00,WUHU216HW,2013-01-26 09:08:00,
2013-01-26 04:13:00,13.1,5.8,30.00,West,270,2.5,6.9,72,0.00,,,0.00,WUHU216HW,2013-01-26 09:13:00,
2013-01-26 04:18:00,13.1,6.1,30.00,West,270,3.1,6.3,73,0.00,,,0.00,WUHU216HW,2013-01-26 09:18:00,
2013-01-26 04:23:00,12.9,6.2,30.00,NNW,338,2.5,6.3,74,0.00,,,0.00,WUHU216HW,2013-01-26 09:23:00,
2013-01-26 04:28:00,12.7,6.0,30.00,NW,315,4.5,7.4,74,0.00,,,0.00,WUHU216HW,2013-01-26 09:28:00,
2013-01-26 04:33:00,12.7,6.0,30.00,SSW,203,3.8,7.4,74,0.00,,,0.00,WUHU216HW,2013-01-26 09:33:00,
2013-01-26 04:38:00,12.7,6.0,30.00,WNW,293,4.7,6.9,74,0.00,,,0.00,WUHU216HW,2013-01-26 09:38:00,
2013-01-26 04:43:00,12.7,6.0,30.00,WNW,293,4.0,6.9,74,0.00,,,0.00,WUHU216HW,2013-01-26 09:43:00,
2013-01-26 04:48:00,12.5,6.1,30.00,West,270,1.8,5.8,75,0.00,,,0.00,WUHU216HW,2013-01-26 09:48:00,
2013-01-26 04:53:00,12.4,5.7,30.00,West,270,3.6,5.8,74,0.00,,,0.00,WUHU216HW,2013-01-26 09:53:00,
2013-01-26 04:58:00,12.4,5.7,30.00,West,270,1.8,4.7,74,0.00,,,0.00,WUHU216HW,2013-01-26 09:58:00,
2013-01-26 05:03:00,12.4,6.0,30.00,NNW,338,1.8,6.0,75,0.00,,,0.00,WUHU216HW,2013-01-26 10:03:00,
2013-01-26 05:08:00,12.4,6.0,30.00,NW,315,0.7,6.0,75,0.00,,,0.00,WUHU216HW,2013-01-26 10:08:00,
2013-01-26 05:13:00,12.2,5.8,30.00,North,0,1.6,5.4,75,0.00,,,0.00,WUHU216HW,2013-01-26 10:13:00,
2013-01-26 05:18:00,12.2,6.1,30.00,SSW,203,2.0,4.5,76,0.00,,,0.00,WUHU216HW,2013-01-26 10:18:00,
2013-01-26 05:23:00,12.2,6.1,30.00,West,270,3.4,4.5,76,0.00,,,0.00,WUHU216HW,2013-01-26 10:23:00,
2013-01-26 05:28:00,12.2,6.1,30.01,WNW,293,2.5,4.7,76,0.00,,,0.00,WUHU216HW,2013-01-26 10:28:00,
2013-01-26 05:33:00,12.2,6.1,30.01,NW,315,2.9,4.7,76,0.00,,,0.00,WUHU216HW,2013-01-26 10:33:00,
2013-01-26 05:38:00,12.4,6.3,30.01,WNW,293,5.4,5.4,76,0.00,,,0.00,WUHU216HW,2013-01-26 10:38:00,
2013-01-26 05:43:00,12.4,6.3,30.02,SW,225,0.4,5.8,76,0.00,,,0.00,WUHU216HW,2013-01-26 10:43:00,
2013-01-26 05:48:00,12.4,6.3,30.02,WNW,293,3.6,6.0,76,0.00,,,0.00,WUHU216HW,2013-01-26 10:48:00,
2013-01-26 05:53:00,12.2,6.1,30.02,WNW,293,2.9,6.0,76,0.00,,,0.00,WUHU216HW,2013-01-26 10:53:00,
2013-01-26 05:58:00,12.2,6.1,30.02,NW,315,4.3,6.5,76,0.00,,,0.00,WUHU216HW,2013-01-26 10:58:00,
2013-01-26 06:03:00,12.4,6.3,30.02,WNW,293,3.4,6.5,76,0.00,,,0.00,WUHU216HW,2013-01-26 11:03:00,
2013-01-26 06:08:00,12.5,6.4,30.02,WSW,248,1.1,6.5,76,0.00,,,0.00,WUHU216HW,2013-01-26 11:08:00,
2013-01-26 06:13:00,12.5,6.4,30.02,West,270,2.0,6.5,76,0.00,,,0.00,WUHU216HW,2013-01-26 11:13:00,
2013-01-26 06:18:00,12.3,6.2,30.02,NW,315,4.7,6.5,76,0.00,,,0.00,WUHU216HW,2013-01-26 11:18:00,
2013-01-26 06:24:00,12.2,6.1,30.02,WNW,293,2.9,7.4,76,0.00,,,0.00,WUHU216HW,2013-01-26 11:24:00,
2013-01-26 06:29:00,12.2,6.1,30.03,NNW,338,3.4,7.4,76,0.00,,,0.00,WUHU216HW,2013-01-26 11:29:00,
2013-01-26 06:34:00,12.2,6.2,30.03,NNE,23,1.8,6.9,76,0.00,,,0.00,WUHU216HW,2013-01-26 11:34:00,
2013-01-26 06:39:00,12.3,6.5,30.03,WNW,293,2.0,7.6,77,0.00,,,0.00,WUHU216HW,2013-01-26 11:39:00,
2013-01-26 06:44:00,12.1,6.3,30.03,NW,315,2.9,7.6,77,0.00,,,0.00,WUHU216HW,2013-01-26 11:44:00,
2013-01-26 06:49:00,12.2,6.3,30.03,North,0,5.1,7.8,77,0.00,,,0.00,WUHU216HW,2013-01-26 11:49:00,
2013-01-26 06:54:00,12.2,6.4,30.03,NW,315,4.3,7.8,77,0.00,,,0.00,WUHU216HW,2013-01-26 11:54:00,
2013-01-26 06:59:00,12.2,6.4,30.03,NW,315,2.5,7.2,77,0.00,,,0.00,WUHU216HW,2013-01-26 11:59:00,
2013-01-26 07:04:00,12.3,6.2,30.03,SE,135,1.8,8.5,76,0.00,,,0.00,WUHU216HW,2013-01-26 12:04:00,
2013-01-26 07:09:00,12.3,6.2,30.04,NNE,23,3.1,8.5,76,0.00,,,0.00,WUHU216HW,2013-01-26 12:09:00,
2013-01-26 07:14:00,12.3,6.2,30.04,SE,135,4.5,6.5,76,0.00,,,0.00,WUHU216HW,2013-01-26 12:14:00,
2013-01-26 07:19:00,12.4,6.3,30.04,NNW,338,4.3,5.4,76,0.00,,,0.00,WUHU216HW,2013-01-26 12:19:00,
2013-01-26 07:24:00,12.4,6.3,30.04,WNW,293,2.0,5.4,76,0.00,,,0.00,WUHU216HW,2013-01-26 12:24:00,
2013-01-26 07:29:00,12.8,6.7,30.04,NW,315,5.4,6.3,76,0.00,,,0.00,WUHU216HW,2013-01-26 12:29:00,
2013-01-26 07:34:00,14.5,8.3,30.04,WNW,293,4.5,6.3,76,0.00,,,0.00,WUHU216HW,2013-01-26 12:34:00,
2013-01-26 07:39:00,15.0,8.2,30.04,NW,315,3.4,5.6,74,0.00,,,0.00,WUHU216HW,2013-01-26 12:39:00,
2013-01-26 07:44:00,14.1,6.8,30.05,NW,315,5.8,9.2,72,0.00,,,0.00,WUHU216HW,2013-01-26 12:44:00,
2013-01-26 07:49:00,13.9,6.5,30.05,NNE,23,0.4,9.2,72,0.00,,,0.00,WUHU216HW,2013-01-26 12:49:00,
2013-01-26 07:54:00,13.5,6.5,30.05,WNW,293,4.7,6.9,73,0.00,,,0.00,WUHU216HW,2013-01-26 12:54:00,
2013-01-26 07:59:00,13.5,6.8,30.05,NW,315,4.7,7.6,74,0.00,,,0.00,WUHU216HW,2013-01-26 12:59:00,
2013-01-26 08:04:00,13.6,6.8,30.05,WNW,293,3.4,7.6,74,0.00,,,0.00,WUHU216HW,2013-01-26 13:04:00,
2013-01-26 08:09:00,13.8,7.1,30.05,WNW,293,1.8,5.6,74,0.00,,,0.00,WUHU216HW,2013-01-26 13:09:00,
2013-01-26 08:14:00,13.8,6.8,30.05,NW,315,6.3,7.4,73,0.00,,,0.00,WUHU216HW,2013-01-26 13:14:00,
2013-01-26 08:19:00,14.3,7.2,30.05,NW,315,4.3,8.5,73,0.00,,,0.00,WUHU216HW,2013-01-26 13:19:00,
2013-01-26 08:24:00,14.8,7.7,30.05,NW,315,3.4,8.5,73,0.00,,,0.00,WUHU216HW,2013-01-26 13:24:00,
2013-01-26 08:29:00,15.9,8.2,30.05,WNW,293,4.0,6.5,71,0.00,,,0.00,WUHU216HW,2013-01-26 13:29:00,
2013-01-26 08:34:00,17.5,9.5,30.05,West,270,5.6,7.4,70,0.00,,,0.00,WUHU216HW,2013-01-26 13:34:00,
2013-01-26 08:39:00,20.7,11.8,30.05,WNW,293,2.2,7.4,68,0.00,,,0.00,WUHU216HW,2013-01-26 13:39:00,
2013-01-26 08:44:00,23.2,11.8,30.05,NW,315,3.1,6.9,61,0.00,,,0.00,WUHU216HW,2013-01-26 13:44:00,
2013-01-26 08:49:00,24.3,12.1,30.05,WSW,248,1.6,6.9,59,0.00,,,0.00,WUHU216HW,2013-01-26 13:49:00,
2013-01-26 08:54:00,25.8,11.8,30.05,WNW,293,4.7,6.3,55,0.00,,,0.00,WUHU216HW,2013-01-26 13:54:00,
2013-01-26 08:59:00,26.2,10.9,30.05,West,270,2.9,7.6,52,0.00,,,0.00,WUHU216HW,2013-01-26 13:59:00,
2013-01-26 09:04:00,26.0,10.7,30.05,NNW,338,4.0,7.6,52,0.00,,,0.00,WUHU216HW,2013-01-26 14:04:00,
2013-01-26 09:09:00,24.2,7.7,30.05,WNW,293,8.3,8.3,49,0.00,,,0.00,WUHU216HW,2013-01-26 14:09:00,
2013-01-26 09:14:00,23.0,7.5,30.05,West,270,0.4,8.3,51,0.00,,,0.00,WUHU216HW,2013-01-26 14:14:00,
2013-01-26 09:19:00,22.8,8.2,30.05,NNE,23,4.5,7.6,53,0.00,,,0.00,WUHU216HW,2013-01-26 14:19:00,
2013-01-26 09:24:00,22.7,7.7,30.05,NW,315,6.9,6.9,52,0.00,,,0.00,WUHU216HW,2013-01-26 14:24:00,
2013-01-26 09:29:00,22.5,7.1,30.06,NNE,23,1.6,8.7,51,0.00,,,0.00,WUHU216HW,2013-01-26 14:29:00,
2013-01-26 09:34:00,22.9,7.8,30.05,WNW,293,2.5,8.7,52,0.00,,,0.00,WUHU216HW,2013-01-26 14:34:00,
2013-01-26 09:41:00,23.3,7.8,30.05,WNW,293,0.9,8.7,51,0.00,,,0.00,WUHU216HW,2013-01-26 14:41:00,
2013-01-26 09:46:00,23.8,7.8,30.05,NW,315,3.4,8.7,50,0.00,,,0.00,WUHU216HW,2013-01-26 14:46:00,
2013-01-26 09:51:00,24.6,8.6,30.05,NW,315,3.4,6.7,50,0.00,,,0.00,WUHU216HW,2013-01-26 14:51:00,
2013-01-26 09:56:00,24.7,7.7,30.05,NW,315,1.8,7.8,48,0.00,,,0.00,WUHU216HW,2013-01-26 14:56:00,
2013-01-26 10:01:00,24.8,7.8,30.05,NW,315,1.8,7.8,48,0.00,,,0.00,WUHU216HW,2013-01-26 15:01:00,
2013-01-26 10:06:00,25.0,8.0,30.05,NW,315,8.5,8.5,48,0.00,,,0.00,WUHU216HW,2013-01-26 15:06:00,
2013-01-26 10:11:00,25.0,7.0,30.05,NNW,338,1.8,8.5,46,0.00,,,0.00,WUHU216HW,2013-01-26 15:11:00,
2013-01-26 10:16:00,25.6,7.1,30.05,WNW,293,4.5,6.0,45,0.00,,,0.00,WUHU216HW,2013-01-26 15:16:00,
2013-01-26 10:21:00,26.0,7.4,30.05,NW,315,4.7,7.4,45,0.00,,,0.00,WUHU216HW,2013-01-26 15:21:00,
2013-01-26 10:26:00,25.1,6.1,30.05,NNW,338,5.4,8.1,44,0.00,,,0.00,WUHU216HW,2013-01-26 15:26:00,
2013-01-26 10:31:00,25.5,7.0,30.05,WNW,293,6.3,8.1,45,0.00,,,0.00,WUHU216HW,2013-01-26 15:31:00,
2013-01-26 10:36:00,25.7,4.5,30.05,West,270,5.6,6.9,40,0.00,,,0.00,WUHU216HW,2013-01-26 15:36:00,
2013-01-26 10:41:00,25.5,6.0,30.05,WNW,293,6.3,6.9,43,0.00,,,0.00,WUHU216HW,2013-01-26 15:41:00,
2013-01-26 10:46:00,25.5,5.4,30.05,NW,315,3.1,6.9,42,0.00,,,0.00,WUHU216HW,2013-01-26 15:46:00,
2013-01-26 10:51:00,26.1,5.4,30.05,West,270,4.7,6.9,41,0.00,,,0.00,WUHU216HW,2013-01-26 15:51:00,
2013-01-26 10:56:00,26.5,6.3,30.05,WNW,293,2.0,6.7,42,0.00,,,0.00,WUHU216HW,2013-01-26 15:56:00,
2013-01-26 11:01:00,27.0,5.7,30.05,NW,315,0.4,6.3,40,0.00,,,0.00,WUHU216HW,2013-01-26 16:01:00,
2013-01-26 11:06:00,27.0,5.1,30.05,NW,315,3.1,6.0,39,0.00,,,0.00,WUHU216HW,2013-01-26 16:06:00,
2013-01-26 11:11:00,27.7,6.9,30.04,West,270,4.0,8.9,41,0.00,,,0.00,WUHU216HW,2013-01-26 16:11:00,
2013-01-26 11:16:00,27.7,5.8,30.04,NNW,338,3.6,8.9,39,0.00,,,0.00,WUHU216HW,2013-01-26 16:16:00,
2013-01-26 11:21:00,27.7,4.6,30.03,NNW,338,2.7,6.7,37,0.00,,,0.00,WUHU216HW,2013-01-26 16:21:00,
2013-01-26 11:26:00,27.7,5.2,30.03,NW,315,6.3,6.7,38,0.00,,,0.00,WUHU216HW,2013-01-26 16:26:00,
2013-01-26 11:31:00,28.4,6.3,30.03,WNW,293,3.4,8.1,39,0.00,,,0.00,WUHU216HW,2013-01-26 16:31:00,
2013-01-26 11:36:00,28.6,5.3,30.03,West,270,4.9,8.9,37,0.00,,,0.00,WUHU216HW,2013-01-26 16:36:00,
2013-01-26 11:41:00,25.9,3.5,30.03,WNW,293,5.6,8.9,38,0.00,,,0.00,WUHU216HW,2013-01-26 16:41:00,
2013-01-26 11:46:00,26.4,4.5,30.03,NW,315,3.4,8.9,39,0.00,,,0.00,WUHU216HW,2013-01-26 16:46:00,
2013-01-26 11:51:00,27.1,4.0,30.03,WNW,293,4.5,8.7,37,0.00,,,0.00,WUHU216HW,2013-01-26 16:51:00,
2013-01-26 11:56:00,26.4,4.6,30.03,West,270,6.0,10.7,39,0.00,,,0.00,WUHU216HW,2013-01-26 16:56:00,
2013-01-26 12:01:00,27.7,5.2,30.02,NW,315,6.9,10.7,38,0.00,,,0.00,WUHU216HW,2013-01-26 17:01:00,
2013-01-26 12:06:00,28.6,6.0,30.02,NW,315,4.9,10.5,38,0.00,,,0.00,WUHU216HW,2013-01-26 17:06:00,
2013-01-26 12:11:00,29.3,6.0,30.01,WNW,293,3.1,7.8,37,0.00,,,0.00,WUHU216HW,2013-01-26 17:11:00,
2013-01-26 12:16:00,27.7,4.6,30.02,WNW,293,5.8,8.5,37,0.00,,,0.00,WUHU216HW,2013-01-26 17:16:00,
2013-01-26 12:21:00,27.8,5.3,30.02,NW,315,7.2,8.5,38,0.00,,,0.00,WUHU216HW,2013-01-26 17:21:00,
2013-01-26 12:26:00,27.5,4.4,30.01,WNW,293,7.6,8.5,37,0.00,,,0.00,WUHU216HW,2013-01-26 17:26:00,
2013-01-26 12:31:00,26.2,3.2,30.01,NW,315,4.5,8.5,37,0.00,,,0.00,WUHU216HW,2013-01-26 17:31:00,
2013-01-26 12:36:00,26.9,5.0,30.01,NW,315,3.4,9.6,39,0.00,,,0.00,WUHU216HW,2013-01-26 17:36:00,
2013-01-26 12:41:00,27.5,5.0,30.01,WNW,293,4.7,9.6,38,0.00,,,0.00,WUHU216HW,2013-01-26 17:41:00,
2013-01-26 12:46:00,28.0,5.4,30.01,NW,315,4.0,8.3,38,0.00,,,0.00,WUHU216HW,2013-01-26 17:46:00,
2013-01-26 12:51:00,27.8,4.7,30.01,WNW,293,5.4,8.3,37,0.00,,,0.00,WUHU216HW,2013-01-26 17:51:00,
2013-01-26 12:56:00,26.4,3.4,30.01,NW,315,5.1,9.2,37,0.00,,,0.00,WUHU216HW,2013-01-26 17:56:00,
2013-01-26 13:01:00,26.4,4.0,30.01,WNW,293,4.7,9.2,38,0.00,,,0.00,WUHU216HW,2013-01-26 18:01:00,
2013-01-26 13:06:00,27.7,5.7,30.01,WNW,293,9.2,9.2,39,0.00,,,0.00,WUHU216HW,2013-01-26 18:06:00,
2013-01-26 13:11:00,28.7,4.8,30.01,WNW,293,5.4,9.2,36,0.00,,,0.00,WUHU216HW,2013-01-26 18:11:00,
2013-01-26 13:16:00,28.9,5.0,30.01,WNW,293,5.8,8.7,36,0.00,,,0.00,WUHU216HW,2013-01-26 18:16:00,
2013-01-26 13:21:00,28.9,5.6,30.01,WNW,293,4.0,8.9,37,0.00,,,0.00,WUHU216HW,2013-01-26 18:21:00,
2013-01-26 13:26:00,28.9,5.0,30.00,WSW,248,5.8,8.9,36,0.00,,,0.00,WUHU216HW,2013-01-26 18:26:00,
2013-01-26 13:31:00,29.5,5.6,30.00,WNW,293,1.6,8.5,36,0.00,,,0.00,WUHU216HW,2013-01-26 18:31:00,
2013-01-26 13:36:00,28.8,2.4,30.00,West,270,9.2,11.2,32,0.00,,,0.00,WUHU216HW,2013-01-26 18:36:00,
2013-01-26 13:41:00,27.6,2.0,30.00,SW,225,4.0,11.2,33,0.00,,,0.00,WUHU216HW,2013-01-26 18:41:00,
2013-01-26 13:46:00,27.9,4.2,30.00,NW,315,7.4,10.5,36,0.00,,,0.00,WUHU216HW,2013-01-26 18:46:00,
2013-01-26 13:51:00,28.1,2.4,30.01,West,270,9.8,9.8,33,0.00,,,0.00,WUHU216HW,2013-01-26 18:51:00,
2013-01-26 13:56:00,28.3,2.0,30.01,NW,315,5.8,9.8,32,0.00,,,0.00,WUHU216HW,2013-01-26 18:56:00,
2013-01-26 14:01:00,28.1,1.8,30.01,NW,315,12.1,12.1,32,0.00,,,0.00,WUHU216HW,2013-01-26 19:01:00,
2013-01-26 14:06:00,27.2,-0.4,30.01,WNW,293,6.7,12.3,30,0.00,,,0.00,WUHU216HW,2013-01-26 19:06:00,
2013-01-26 14:11:00,26.8,-0.8,30.01,NW,315,5.4,12.3,30,0.00,,,0.00,WUHU216HW,2013-01-26 19:11:00,
2013-01-26 14:16:00,26.6,-0.2,30.01,NNW,338,5.1,11.4,31,0.00,,,0.00,WUHU216HW,2013-01-26 19:16:00,
2013-01-26 14:21:00,27.5,-0.1,30.01,NW,315,8.1,11.4,30,0.00,,,0.00,WUHU216HW,2013-01-26 19:21:00,
2013-01-26 14:26:00,27.8,0.2,30.02,WNW,293,5.8,12.1,30,0.00,,,0.00,WUHU216HW,2013-01-26 19:26:00,
2013-01-26 14:31:00,27.8,-0.6,30.02,West,270,12.9,13.0,29,0.00,,,0.00,WUHU216HW,2013-01-26 19:31:00,
2013-01-26 14:36:00,27.6,-2.2,30.02,WNW,293,11.4,13.0,27,0.00,,,0.00,WUHU216HW,2013-01-26 19:36:00,
2013-01-26 14:41:00,26.2,-2.0,30.02,WNW,293,4.7,13.0,29,0.00,,,0.00,WUHU216HW,2013-01-26 19:41:00,
2013-01-26 14:46:00,26.8,-1.4,30.02,NW,315,10.5,11.4,29,0.00,,,0.00,WUHU216HW,2013-01-26 19:46:00,
2013-01-26 14:51:00,26.3,-1.9,30.02,West,270,10.1,11.9,29,0.00,,,0.00,WUHU216HW,2013-01-26 19:51:00,
2013-01-26 14:56:00,26.1,-2.8,30.02,WNW,293,9.2,13.2,28,0.00,,,0.00,WUHU216HW,2013-01-26 19:56:00,
2013-01-26 15:01:00,25.7,-3.1,30.02,West,270,9.4,13.2,28,0.00,,,0.00,WUHU216HW,2013-01-26 20:01:00,
2013-01-26 15:06:00,26.1,-2.1,30.03,West,270,8.1,11.2,29,0.00,,,0.00,WUHU216HW,2013-01-26 20:06:00,
2013-01-26 15:11:00,26.4,-1.8,30.03,West,270,7.4,11.6,29,0.00,,,0.00,WUHU216HW,2013-01-26 20:11:00,
2013-01-26 15:16:00,26.7,-2.2,30.03,West,270,11.0,13.2,28,0.00,,,0.00,WUHU216HW,2013-01-26 20:16:00,
2013-01-26 15:21:00,26.4,-2.5,30.04,NW,315,12.7,15.2,28,0.00,,,0.00,WUHU216HW,2013-01-26 20:21:00,
2013-01-26 15:26:00,26.2,-2.0,30.04,SSW,203,11.2,17.2,29,0.00,,,0.00,WUHU216HW,2013-01-26 20:26:00,
2013-01-26 15:31:00,26.3,-1.8,30.04,WNW,293,7.6,17.2,29,0.00,,,0.00,WUHU216HW,2013-01-26 20:31:00,
2013-01-26 15:36:00,26.4,-2.5,30.04,SSE,158,8.1,11.9,28,0.00,,,0.00,WUHU216HW,2013-01-26 20:36:00,
2013-01-26 15:41:00,25.5,-3.3,30.04,NW,315,5.1,11.9,28,0.00,,,0.00,WUHU216HW,2013-01-26 20:41:00,
2013-01-26 15:46:00,25.2,-2.9,30.05,WNW,293,6.0,12.1,29,0.00,,,0.00,WUHU216HW,2013-01-26 20:46:00,
2013-01-26 15:51:00,24.4,-4.2,30.05,North,0,7.2,12.1,28,0.00,,,0.00,WUHU216HW,2013-01-26 20:51:00,
2013-01-26 15:56:00,23.6,-3.5,30.05,NW,315,6.5,12.8,30,0.00,,,0.00,WUHU216HW,2013-01-26 20:56:00,
2013-01-26 16:01:00,23.5,-3.6,30.05,WSW,248,7.8,13.0,30,0.00,,,0.00,WUHU216HW,2013-01-26 21:01:00,
2013-01-26 16:06:00,23.1,-3.3,30.05,WNW,293,8.1,15.0,31,0.00,,,0.00,WUHU216HW,2013-01-26 21:06:00,
2013-01-26 16:11:00,22.8,-3.5,30.06,WNW,293,6.5,15.0,31,0.00,,,0.00,WUHU216HW,2013-01-26 21:11:00,
2013-01-26 16:16:00,23.7,-2.1,30.06,NW,315,12.1,14.5,32,0.00,,,0.00,WUHU216HW,2013-01-26 21:16:00,
2013-01-26 16:21:00,24.4,-2.2,30.06,WNW,293,8.5,15.0,31,0.00,,,0.00,WUHU216HW,2013-01-26 21:21:00,
2013-01-26 16:26:00,24.0,-3.1,30.06,NW,315,4.9,15.0,30,0.00,,,0.00,WUHU216HW,2013-01-26 21:26:00,
2013-01-26 16:31:00,23.3,-3.1,30.06,NW,315,9.2,14.3,31,0.00,,,0.00,WUHU216HW,2013-01-26 21:31:00,
2013-01-26 16:36:00,22.5,-3.2,30.06,NW,315,11.9,14.3,32,0.00,,,0.00,WUHU216HW,2013-01-26 21:36:00,
2013-01-26 16:41:00,22.0,-2.4,30.07,NW,315,4.5,14.1,34,0.00,,,0.00,WUHU216HW,2013-01-26 21:41:00,
2013-01-26 16:46:00,21.2,-3.6,30.07,NNW,338,7.4,14.1,33,0.00,,,0.00,WUHU216HW,2013-01-26 21:46:00,
2013-01-26 16:51:00,20.8,-3.4,30.07,WNW,293,11.6,12.5,34,0.00,,,0.00,WUHU216HW,2013-01-26 21:51:00,
2013-01-26 16:56:00,20.8,-4.1,30.08,NNW,338,8.5,12.5,33,0.00,,,0.00,WUHU216HW,2013-01-26 21:56:00,
2013-01-26 17:01:00,20.5,-2.4,30.08,NW,315,9.2,12.1,36,0.00,,,0.00,WUHU216HW,2013-01-26 22:01:00,
2013-01-26 17:06:00,20.4,-3.8,30.08,NNW,338,5.1,13.4,34,0.00,,,0.00,WUHU216HW,2013-01-26 22:06:00,
2013-01-26 17:11:00,20.4,-5.0,30.08,NW,315,6.5,13.4,32,0.00,,,0.00,WUHU216HW,2013-01-26 22:11:00,
2013-01-26 17:16:00,20.1,-4.0,30.09,West,270,6.5,12.1,34,0.00,,,0.00,WUHU216HW,2013-01-26 22:16:00,
2013-01-26 17:21:00,20.1,-2.8,30.09,North,0,5.1,10.1,36,0.00,,,0.00,WUHU216HW,2013-01-26 22:21:00,
2013-01-26 17:26:00,19.9,-3.6,30.09,West,270,8.7,12.8,35,0.00,,,0.00,WUHU216HW,2013-01-26 22:26:00,
2013-01-26 17:31:00,19.8,-3.1,30.10,WSW,248,7.2,12.8,36,0.00,,,0.00,WUHU216HW,2013-01-26 22:31:00,
2013-01-26 17:36:00,19.6,-3.9,30.09,West,270,13.3,13.4,35,0.00,,,0.00,WUHU216HW,2013-01-26 22:36:00,
2013-01-26 17:41:00,19.4,-4.7,30.10,WNW,293,7.4,13.4,34,0.00,,,0.00,WUHU216HW,2013-01-26 22:41:00,
2013-01-26 17:46:00,19.3,-6.0,30.09,West,270,10.1,13.4,32,0.00,,,0.00,WUHU216HW,2013-01-26 22:46:00,
2013-01-26 17:51:00,19.2,-5.4,30.10,South,180,14.2,14.3,33,0.00,,,0.00,WUHU216HW,2013-01-26 22:51:00,
2013-01-26 17:56:00,19.0,-5.7,30.10,West,270,9.2,14.3,33,0.00,,,0.00,WUHU216HW,2013-01-26 22:56:00,
2013-01-26 18:01:00,18.7,-5.2,30.10,WNW,293,13.8,17.9,34,0.00,,,0.00,WUHU216HW,2013-01-26 23:01:00,
2013-01-26 18:06:00,18.7,-6.5,30.10,WNW,293,13.5,18.6,32,0.00,,,0.00,WUHU216HW,2013-01-26 23:06:00,
2013-01-26 18:11:00,18.4,-5.5,30.10,West,270,11.4,18.6,34,0.00,,,0.00,WUHU216HW,2013-01-26 23:11:00,
2013-01-26 18:16:00,18.4,-5.5,30.11,NNW,338,7.6,13.9,34,0.00,,,0.00,WUHU216HW,2013-01-26 23:16:00,
2013-01-26 18:21:00,18.4,-4.9,30.11,NW,315,7.2,12.3,35,0.00,,,0.00,WUHU216HW,2013-01-26 23:21:00,
2013-01-26 18:26:00,18.3,-5.0,30.11,WNW,293,7.2,12.3,35,0.00,,,0.00,WUHU216HW,2013-01-26 23:26:00,
2013-01-26 18:31:00,18.3,-5.6,30.11,West,270,12.1,12.1,34,0.00,,,0.00,WUHU216HW,2013-01-26 23:31:00,
2013-01-26 18:37:00,18.3,-5.6,30.11,NW,315,8.5,15.9,34,0.00,,,0.00,WUHU216HW,2013-01-26 23:37:00,
2013-01-26 18:42:00,18.0,-5.9,30.11,WNW,293,13.3,15.9,34,0.00,,,0.00,WUHU216HW,2013-01-26 23:42:00,
2013-01-26 18:47:00,17.9,-6.0,30.12,NW,315,6.3,15.4,34,0.00,,,0.00,WUHU216HW,2013-01-26 23:47:00,
2013-01-26 18:52:00,17.9,-4.8,30.13,NW,315,4.5,15.4,36,0.00,,,0.00,WUHU216HW,2013-01-26 23:52:00,
2013-01-26 18:57:00,17.8,-5.4,30.12,NNW,338,9.2,12.5,35,0.00,,,0.00,WUHU216HW,2013-01-26 23:57:00,
2013-01-26 19:02:00,17.6,-5.1,30.12,WNW,293,12.1,12.5,36,0.00,,,0.00,WUHU216HW,2013-01-27 00:02:00,
2013-01-26 19:07:00,17.4,-4.7,30.13,WNW,293,9.4,12.1,37,0.00,,,0.00,WUHU216HW,2013-01-27 00:07:00,
2013-01-26 19:12:00,17.2,-4.8,30.13,NW,315,3.1,12.1,37,0.00,,,0.00,WUHU216HW,2013-01-27 00:12:00,
2013-01-26 19:17:00,17.2,-4.8,30.13,NNW,338,4.0,9.6,37,0.00,,,0.00,WUHU216HW,2013-01-27 00:17:00,
2013-01-26 19:22:00,17.0,-4.5,30.13,WNW,293,5.1,7.6,38,0.00,,,0.00,WUHU216HW,2013-01-27 00:22:00,
2013-01-26 19:27:00,16.7,-5.3,30.13,WNW,293,9.8,12.8,37,0.00,,,0.00,WUHU216HW,2013-01-27 00:27:00,
2013-01-26 19:32:00,16.5,-5.5,30.13,WNW,293,10.3,15.0,37,0.00,,,0.00,WUHU216HW,2013-01-27 00:32:00,
2013-01-26 19:37:00,16.3,-5.1,30.13,NNW,338,12.9,15.0,38,0.00,,,0.00,WUHU216HW,2013-01-27 00:37:00,
2013-01-26 19:42:00,16.3,-4.5,30.13,West,270,9.2,13.4,39,0.00,,,0.00,WUHU216HW,2013-01-27 00:42:00,
2013-01-26 19:47:00,16.1,-5.8,30.13,North,0,11.2,14.1,37,0.00,,,0.00,WUHU216HW,2013-01-27 00:47:00,
2013-01-26 19:52:00,16.0,-5.4,30.13,NW,315,4.9,14.1,38,0.00,,,0.00,WUHU216HW,2013-01-27 00:52:00,
2013-01-26 19:57:00,16.0,-5.4,30.13,NW,315,14.9,15.0,38,0.00,,,0.00,WUHU216HW,2013-01-27 00:57:00,
2013-01-26 20:02:00,15.6,-5.7,30.14,NW,315,6.0,17.0,38,0.00,,,0.00,WUHU216HW,2013-01-27 01:02:00,
2013-01-26 20:07:00,15.2,-6.1,30.14,NW,315,10.7,17.0,38,0.00,,,0.00,WUHU216HW,2013-01-27 01:07:00,
2013-01-26 20:12:00,15.2,-5.0,30.15,NW,315,8.5,15.0,40,0.00,,,0.00,WUHU216HW,2013-01-27 01:12:00,
2013-01-26 20:17:00,15.1,-4.6,30.14,WNW,293,8.3,14.1,41,0.00,,,0.00,WUHU216HW,2013-01-27 01:17:00,
2013-01-26 20:22:00,14.9,-4.7,30.14,WNW,293,11.4,16.6,41,0.00,,,0.00,WUHU216HW,2013-01-27 01:22:00,
2013-01-26 20:27:00,14.9,-4.7,30.14,WNW,293,11.4,16.6,41,0.00,,,0.00,WUHU216HW,2013-01-27 01:27:00,
2013-01-26 20:32:00,14.7,-4.4,30.15,NNW,338,7.4,17.0,42,0.00,,,0.00,WUHU216HW,2013-01-27 01:32:00,
2013-01-26 20:37:00,14.7,-3.9,30.15,WNW,293,5.4,17.0,43,0.00,,,0.00,WUHU216HW,2013-01-27 01:37:00,
2013-01-26 20:42:00,14.5,-4.6,30.15,NW,315,9.4,14.3,42,0.00,,,0.00,WUHU216HW,2013-01-27 01:42:00,
2013-01-26 20:47:00,14.5,-3.1,30.15,NW,315,14.4,15.9,45,0.00,,,0.00,WUHU216HW,2013-01-27 01:47:00,
2013-01-26 20:52:00,14.5,-3.1,30.15,WNW,293,6.9,15.9,45,0.00,,,0.00,WUHU216HW,2013-01-27 01:52:00,
2013-01-26 20:57:00,14.2,-3.9,30.15,WNW,293,14.4,14.5,44,0.00,,,0.00,WUHU216HW,2013-01-27 01:57:00,
2013-01-26 21:02:00,14.2,-2.5,30.15,NW,315,8.9,14.5,47,0.00,,,0.00,WUHU216HW,2013-01-27 02:02:00,
2013-01-26 21:07:00,14.2,-2.9,30.15,WNW,293,8.5,14.5,46,0.00,,,0.00,WUHU216HW,2013-01-27 02:07:00,
2013-01-26 21:12:00,13.8,-3.3,30.15,WNW,293,12.7,15.7,46,0.00,,,0.00,WUHU216HW,2013-01-27 02:12:00,
2013-01-26 21:17:00,13.8,-1.5,30.15,NW,315,11.6,15.7,50,0.00,,,0.00,WUHU216HW,2013-01-27 02:17:00,
2013-01-26 21:22:00,13.8,-1.5,30.15,North,0,8.7,14.3,50,0.00,,,0.00,WUHU216HW,2013-01-27 02:22:00,
2013-01-26 21:27:00,13.8,-1.1,30.15,West,270,12.7,15.0,51,0.00,,,0.00,WUHU216HW,2013-01-27 02:27:00,
2013-01-26 21:32:00,14.0,0.0,30.14,NNW,338,9.2,15.2,53,0.00,,,0.00,WUHU216HW,2013-01-27 02:32:00,
2013-01-26 21:37:00,13.8,-1.1,30.14,West,270,10.3,16.3,51,0.00,,,0.00,WUHU216HW,2013-01-27 02:37:00,
2013-01-26 21:42:00,13.8,-0.2,30.14,West,270,8.7,16.3,53,0.00,,,0.00,WUHU216HW,2013-01-27 02:42:00,
2013-01-26 21:47:00,13.6,-0.4,30.14,West,270,16.7,16.8,53,0.00,,,0.00,WUHU216HW,2013-01-27 02:47:00,
2013-01-26 21:52:00,13.6,0.0,30.14,West,270,9.2,16.8,54,0.00,,,0.00,WUHU216HW,2013-01-27 02:52:00,
2013-01-26 21:57:00,13.4,-0.2,30.14,WNW,293,9.8,19.2,54,0.00,,,0.00,WUHU216HW,2013-01-27 02:57:00,
2013-01-26 22:02:00,13.6,1.2,30.15,NW,315,10.7,19.2,57,0.00,,,0.00,WUHU216HW,2013-01-27 03:02:00,
2013-01-26 22:07:00,13.6,0.8,30.15,NW,315,10.7,17.0,56,0.00,,,0.00,WUHU216HW,2013-01-27 03:07:00,
2013-01-26 22:12:00,13.6,1.2,30.15,West,270,10.5,17.0,57,0.00,,,0.00,WUHU216HW,2013-01-27 03:12:00,
2013-01-26 22:17:00,13.4,1.0,30.15,WNW,293,9.8,17.0,57,0.00,,,0.00,WUHU216HW,2013-01-27 03:17:00,
2013-01-26 22:22:00,13.3,0.5,30.16,WNW,293,11.4,16.1,56,0.00,,,0.00,WUHU216HW,2013-01-27 03:22:00,
2013-01-26 22:27:00,13.3,1.3,30.17,SSW,203,12.1,13.6,58,0.00,,,0.00,WUHU216HW,2013-01-27 03:27:00,
2013-01-26 22:32:00,13.3,0.5,30.17,NW,315,6.3,13.2,56,0.00,,,0.00,WUHU216HW,2013-01-27 03:32:00,
2013-01-26 22:37:00,13.3,1.3,30.17,West,270,13.3,13.4,58,0.00,,,0.00,WUHU216HW,2013-01-27 03:37:00,
2013-01-26 22:42:00,13.1,0.7,30.18,WNW,293,6.5,15.0,57,0.00,,,0.00,WUHU216HW,2013-01-27 03:42:00,
2013-01-26 22:47:00,13.1,0.7,30.18,West,270,7.8,15.0,57,0.00,,,0.00,WUHU216HW,2013-01-27 03:47:00,
2013-01-26 22:52:00,13.1,1.8,30.18,WNW,293,6.3,13.4,60,0.00,,,0.00,WUHU216HW,2013-01-27 03:52:00,
2013-01-26 22:57:00,13.1,1.1,30.18,WNW,293,11.6,16.3,58,0.00,,,0.00,WUHU216HW,2013-01-27 03:57:00,
2013-01-26 23:02:00,13.1,1.5,30.18,WNW,293,11.4,16.3,59,0.00,,,0.00,WUHU216HW,2013-01-27 04:02:00,
2013-01-26 23:07:00,13.1,1.5,30.18,NW,315,12.1,15.9,59,0.00,,,0.00,WUHU216HW,2013-01-27 04:07:00,
2013-01-26 23:12:00,13.1,1.1,30.18,WNW,293,12.9,17.4,58,0.00,,,0.00,WUHU216HW,2013-01-27 04:12:00,
2013-01-26 23:17:00,13.1,1.5,30.18,NW,315,11.6,17.4,59,0.00,,,0.00,WUHU216HW,2013-01-27 04:17:00,
2013-01-26 23:22:00,13.3,2.4,30.18,WSW,248,7.8,15.4,61,0.00,,,0.00,WUHU216HW,2013-01-27 04:22:00,
2013-01-26 23:27:00,13.1,1.8,30.18,WNW,293,13.5,14.3,60,0.00,,,0.00,WUHU216HW,2013-01-27 04:27:00,
2013-01-26 23:32:00,13.1,1.8,30.18,NW,315,12.7,15.0,60,0.00,,,0.00,WUHU216HW,2013-01-27 04:32:00,
2013-01-26 23:37:00,13.1,1.5,30.18,WNW,293,11.2,15.0,59,0.00,,,0.00,WUHU216HW,2013-01-27 04:37:00,
2013-01-26 23:42:00,13.1,1.5,30.18,NW,315,14.7,15.7,59,0.00,,,0.00,WUHU216HW,2013-01-27 04:42:00,
2013-01-26 23:47:00,13.1,1.5,30.19,NW,315,11.9,15.7,59,0.00,,,0.00,WUHU216HW,2013-01-27 04:47:00,
2013-01-26 23:52:00,13.1,1.8,30.18,WNW,293,9.2,14.8,60,0.00,,,0.00,WUHU216HW,2013-01-27 04:52:00,
2013-01-26 23:57:00,13.1,1.8,30.18,NW,315,9.6,13.4,60,0.00,,,0.00,WUHU216HW,2013-01-27 04:57:00,